sensor_id;sensor_type;location;lat;lon;timestamp;pressure;altitude;pressure_sealevel;temperature;humidity
40315;BME280;26021;45.640;11.302;2023-11-21T00:02:20;98205.06;;;7.18;100.00
40315;BME280;26021;45.640;11.302;2023-11-21T00:04:47;98199.53;;;7.28;100.00
40315;BME280;26021;45.640;11.302;2023-11-21T00:07:13;98125.19;;;7.04;100.00
40315;BME280;26021;45.640;11.302;2023-11-21T00:09:38;98184.72;;;7.33;100.00
40315;BME280;26021;45.640;11.302;2023-11-21T00:12:04;98179.88;;;7.37;100.00
40315;BME280;26021;45.640;11.302;2023-11-21T00:14:29;98184.94;;;7.24;100.00
40315;BME280;26021;45.640;11.302;2023-11-21T00:16:55;98111.22;;;7.01;100.00
40315;BME280;26021;45.640;11.302;2023-11-21T00:19:20;98177.31;;;7.13;100.00
40315;BME280;26021;45.640;11.302;2023-11-21T00:21:46;98174.00;;;7.11;100.00
40315;BME280;26021;45.640;11.302;2023-11-21T00:24:12;98160.72;;;7.11;100.00
40315;BME280;26021;45.640;11.302;2023-11-21T00:26:39;98168.16;;;7.23;100.00
40315;BME280;26021;45.640;11.302;2023-11-21T00:29:05;98170.69;;;7.09;100.00
40315;BME280;26021;45.640;11.302;2023-11-21T00:31:36;98144.09;;;7.09;100.00
40315;BME280;26021;45.640;11.302;2023-11-21T00:34:02;98157.19;;;7.18;100.00
40315;BME280;26021;45.640;11.302;2023-11-21T00:36:31;98167.72;;;7.43;100.00
40315;BME280;26021;45.640;11.302;2023-11-21T00:38:57;98156.59;;;7.39;100.00
40315;BME280;26021;45.640;11.302;2023-11-21T00:41:22;98138.78;;;7.09;100.00
40315;BME280;26021;45.640;11.302;2023-11-21T00:43:48;98151.75;;;7.12;100.00
40315;BME280;26021;45.640;11.302;2023-11-21T00:46:13;98143.06;;;7.18;100.00
40315;BME280;26021;45.640;11.302;2023-11-21T00:48:39;98146.69;;;7.25;100.00
40315;BME280;26021;45.640;11.302;2023-11-21T00:51:04;98136.06;;;7.25;100.00
40315;BME280;26021;45.640;11.302;2023-11-21T00:53:31;98064.00;;;6.73;100.00
40315;BME280;26021;45.640;11.302;2023-11-21T00:55:57;98151.84;;;7.26;100.00
40315;BME280;26021;45.640;11.302;2023-11-21T00:58:25;98151.19;;;7.24;100.00
40315;BME280;26021;45.640;11.302;2023-11-21T01:00:51;98148.97;;;7.36;100.00
40315;BME280;26021;45.640;11.302;2023-11-21T01:03:16;98155.28;;;7.35;100.00
40315;BME280;26021;45.640;11.302;2023-11-21T01:05:42;98166.31;;;7.24;100.00
40315;BME280;26021;45.640;11.302;2023-11-21T01:08:07;98157.41;;;7.09;100.00
40315;BME280;26021;45.640;11.302;2023-11-21T01:10:33;98160.88;;;7.09;100.00
40315;BME280;26021;45.640;11.302;2023-11-21T01:12:59;98158.44;;;6.99;100.00
40315;BME280;26021;45.640;11.302;2023-11-21T01:15:25;98155.13;;;6.89;100.00
40315;BME280;26021;45.640;11.302;2023-11-21T01:17:51;98145.97;;;7.00;100.00
40315;BME280;26021;45.640;11.302;2023-11-21T01:20:17;98123.44;;;6.80;100.00
40315;BME280;26021;45.640;11.302;2023-11-21T01:22:43;98133.56;;;6.84;100.00
40315;BME280;26021;45.640;11.302;2023-11-21T01:25:09;98141.19;;;6.87;100.00
40315;BME280;26021;45.640;11.302;2023-11-21T01:27:36;98130.91;;;6.84;100.00
40315;BME280;26021;45.640;11.302;2023-11-21T01:30:03;98028.69;;;6.40;100.00
40315;BME280;26021;45.640;11.302;2023-11-21T01:32:28;98130.28;;;7.13;100.00
40315;BME280;26021;45.640;11.302;2023-11-21T01:34:54;98123.56;;;6.86;100.00
40315;BME280;26021;45.640;11.302;2023-11-21T01:37:21;98124.91;;;6.90;100.00
40315;BME280;26021;45.640;11.302;2023-11-21T01:39:47;98107.44;;;6.96;100.00
40315;BME280;26021;45.640;11.302;2023-11-21T01:42:12;98116.59;;;6.85;100.00
40315;BME280;26021;45.640;11.302;2023-11-21T01:44:39;98065.53;;;6.43;100.00
40315;BME280;26021;45.640;11.302;2023-11-21T01:47:08;98119.25;;;6.85;100.00
40315;BME280;26021;45.640;11.302;2023-11-21T01:49:35;98116.44;;;6.87;100.00
40315;BME280;26021;45.640;11.302;2023-11-21T01:52:02;98100.84;;;6.76;100.00
40315;BME280;26021;45.640;11.302;2023-11-21T01:54:29;98091.75;;;6.70;100.00
40315;BME280;26021;45.640;11.302;2023-11-21T01:56:58;98096.72;;;6.57;100.00
40315;BME280;26021;45.640;11.302;2023-11-21T01:59:36;98114.63;;;6.79;100.00
40315;BME280;26021;45.640;11.302;2023-11-21T02:02:11;98115.63;;;6.78;100.00
40315;BME280;26021;45.640;11.302;2023-11-21T02:04:36;98101.31;;;6.87;100.00
40315;BME280;26021;45.640;11.302;2023-11-21T02:07:02;98100.94;;;6.98;100.00
40315;BME280;26021;45.640;11.302;2023-11-21T02:09:30;98096.63;;;6.97;100.00
40315;BME280;26021;45.640;11.302;2023-11-21T02:11:56;98094.50;;;6.85;100.00
40315;BME280;26021;45.640;11.302;2023-11-21T02:14:24;98023.69;;;6.45;100.00
40315;BME280;26021;45.640;11.302;2023-11-21T02:16:52;98079.06;;;6.80;100.00
40315;BME280;26021;45.640;11.302;2023-11-21T02:19:19;98069.91;;;6.91;100.00
40315;BME280;26021;45.640;11.302;2023-11-21T02:21:45;98066.63;;;6.81;100.00
40315;BME280;26021;45.640;11.302;2023-11-21T02:24:13;98051.53;;;6.73;100.00
40315;BME280;26021;45.640;11.302;2023-11-21T02:26:38;98063.00;;;6.74;100.00
40315;BME280;26021;45.640;11.302;2023-11-21T02:29:04;98051.66;;;6.80;100.00
40315;BME280;26021;45.640;11.302;2023-11-21T02:31:30;97996.50;;;6.34;100.00
40315;BME280;26021;45.640;11.302;2023-11-21T02:33:56;98052.00;;;6.68;100.00
40315;BME280;26021;45.640;11.302;2023-11-21T02:36:22;98045.03;;;6.76;100.00
40315;BME280;26021;45.640;11.302;2023-11-21T02:38:47;98048.19;;;6.79;100.00
40315;BME280;26021;45.640;11.302;2023-11-21T02:41:13;98040.19;;;6.87;100.00
40315;BME280;26021;45.640;11.302;2023-11-21T02:43:38;98020.66;;;6.72;100.00
40315;BME280;26021;45.640;11.302;2023-11-21T02:46:04;98033.97;;;6.56;100.00
40315;BME280;26021;45.640;11.302;2023-11-21T02:48:29;98037.91;;;6.76;100.00
40315;BME280;26021;45.640;11.302;2023-11-21T02:50:56;98033.94;;;6.72;100.00
40315;BME280;26021;45.640;11.302;2023-11-21T02:53:21;98031.97;;;6.58;100.00
40315;BME280;26021;45.640;11.302;2023-11-21T02:55:46;97973.16;;;6.22;100.00
40315;BME280;26021;45.640;11.302;2023-11-21T02:58:12;98023.31;;;6.64;100.00
40315;BME280;26021;45.640;11.302;2023-11-21T03:00:37;98026.47;;;6.59;100.00
40315;BME280;26021;45.640;11.302;2023-11-21T03:03:05;98025.66;;;6.59;100.00
40315;BME280;26021;45.640;11.302;2023-11-21T03:05:30;98024.31;;;6.63;100.00
40315;BME280;26021;45.640;11.302;2023-11-21T03:07:56;98022.97;;;6.67;100.00
40315;BME280;26021;45.640;11.302;2023-11-21T03:10:21;98021.13;;;6.67;100.00
40315;BME280;26021;45.640;11.302;2023-11-21T03:12:47;98010.88;;;6.56;100.00
40315;BME280;26021;45.640;11.302;2023-11-21T03:15:12;98002.44;;;6.53;100.00
40315;BME280;26021;45.640;11.302;2023-11-21T03:17:38;97943.00;;;6.07;100.00
40315;BME280;26021;45.640;11.302;2023-11-21T03:20:04;98006.09;;;6.44;100.00
40315;BME280;26021;45.640;11.302;2023-11-21T03:22:29;98008.09;;;6.50;100.00
40315;BME280;26021;45.640;11.302;2023-11-21T03:24:55;97909.50;;;5.97;100.00
40315;BME280;26021;45.640;11.302;2023-11-21T03:27:20;97999.63;;;6.46;100.00
40315;BME280;26021;45.640;11.302;2023-11-21T03:29:46;98000.78;;;6.44;100.00
40315;BME280;26021;45.640;11.302;2023-11-21T03:32:12;97992.13;;;6.50;100.00
40315;BME280;26021;45.640;11.302;2023-11-21T03:34:53;97994.66;;;6.43;100.00
40315;BME280;26021;45.640;11.302;2023-11-21T03:37:20;97990.66;;;6.47;100.00
40315;BME280;26021;45.640;11.302;2023-11-21T03:39:46;97959.72;;;6.23;100.00
40315;BME280;26021;45.640;11.302;2023-11-21T03:42:12;97993.94;;;6.57;100.00
40315;BME280;26021;45.640;11.302;2023-11-21T03:44:37;97993.66;;;6.44;100.00
40315;BME280;26021;45.640;11.302;2023-11-21T03:47:03;97992.69;;;6.37;100.00
40315;BME280;26021;45.640;11.302;2023-11-21T03:49:28;97994.56;;;6.20;100.00
40315;BME280;26021;45.640;11.302;2023-11-21T03:51:55;97992.09;;;6.19;100.00
40315;BME280;26021;45.640;11.302;2023-11-21T03:54:20;97992.75;;;6.21;100.00
40315;BME280;26021;45.640;11.302;2023-11-21T03:56:46;97976.16;;;6.19;100.00
40315;BME280;26021;45.640;11.302;2023-11-21T03:59:11;97990.41;;;6.18;100.00
40315;BME280;26021;45.640;11.302;2023-11-21T04:01:37;97998.31;;;6.42;100.00
40315;BME280;26021;45.640;11.302;2023-11-21T04:04:03;97994.72;;;6.19;100.00
40315;BME280;26021;45.640;11.302;2023-11-21T04:06:29;97995.59;;;6.03;100.00
40315;BME280;26021;45.640;11.302;2023-11-21T04:08:54;97995.91;;;5.92;100.00
40315;BME280;26021;45.640;11.302;2023-11-21T04:11:20;98006.53;;;6.08;100.00
40315;BME280;26021;45.640;11.302;2023-11-21T04:13:45;97999.75;;;5.89;100.00
40315;BME280;26021;45.640;11.302;2023-11-21T04:16:12;98006.56;;;6.00;100.00
40315;BME280;26021;45.640;11.302;2023-11-21T04:18:38;98008.34;;;6.16;100.00
40315;BME280;26021;45.640;11.302;2023-11-21T04:21:06;98006.50;;;5.84;100.00
40315;BME280;26021;45.640;11.302;2023-11-21T04:23:33;97934.75;;;5.45;100.00
40315;BME280;26021;45.640;11.302;2023-11-21T04:25:59;97961.44;;;5.51;100.00
40315;BME280;26021;45.640;11.302;2023-11-21T04:28:24;98008.88;;;5.95;100.00
40315;BME280;26021;45.640;11.302;2023-11-21T04:30:50;98004.69;;;5.84;100.00
40315;BME280;26021;45.640;11.302;2023-11-21T04:33:15;98002.19;;;5.83;100.00
40315;BME280;26021;45.640;11.302;2023-11-21T04:35:41;98001.22;;;5.59;100.00
40315;BME280;26021;45.640;11.302;2023-11-21T04:38:07;98000.91;;;5.62;100.00
40315;BME280;26021;45.640;11.302;2023-11-21T04:40:32;98005.19;;;5.55;100.00
40315;BME280;26021;45.640;11.302;2023-11-21T04:42:58;98004.38;;;5.47;100.00
40315;BME280;26021;45.640;11.302;2023-11-21T04:45:23;98003.38;;;5.56;100.00
40315;BME280;26021;45.640;11.302;2023-11-21T04:47:49;98001.22;;;5.51;100.00
40315;BME280;26021;45.640;11.302;2023-11-21T04:50:14;97969.41;;;5.27;100.00
40315;BME280;26021;45.640;11.302;2023-11-21T04:52:40;98003.88;;;5.59;100.00
40315;BME280;26021;45.640;11.302;2023-11-21T04:55:05;97936.56;;;5.03;100.00
40315;BME280;26021;45.640;11.302;2023-11-21T04:57:35;97909.53;;;5.00;100.00
40315;BME280;26021;45.640;11.302;2023-11-21T05:00:00;97998.25;;;5.46;100.00
40315;BME280;26021;45.640;11.302;2023-11-21T05:02:26;97992.56;;;5.17;100.00
40315;BME280;26021;45.640;11.302;2023-11-21T05:04:51;97977.53;;;5.33;100.00
40315;BME280;26021;45.640;11.302;2023-11-21T05:07:19;97948.81;;;5.13;100.00
40315;BME280;26021;45.640;11.302;2023-11-21T05:09:44;97989.28;;;5.55;100.00
40315;BME280;26021;45.640;11.302;2023-11-21T05:12:11;97982.81;;;5.41;100.00
40315;BME280;26021;45.640;11.302;2023-11-21T05:14:37;97962.09;;;5.21;100.00
40315;BME280;26021;45.640;11.302;2023-11-21T05:17:03;97988.13;;;5.41;100.00
40315;BME280;26021;45.640;11.302;2023-11-21T05:19:29;97952.34;;;5.29;100.00
40315;BME280;26021;45.640;11.302;2023-11-21T05:21:55;97990.28;;;5.46;100.00
40315;BME280;26021;45.640;11.302;2023-11-21T05:24:20;97959.56;;;5.11;100.00
40315;BME280;26021;45.640;11.302;2023-11-21T05:26:46;97986.31;;;5.34;100.00
40315;BME280;26021;45.640;11.302;2023-11-21T05:29:11;97842.38;;;4.34;100.00
40315;BME280;26021;45.640;11.302;2023-11-21T05:31:37;97888.78;;;4.55;100.00
40315;BME280;26021;45.640;11.302;2023-11-21T05:34:03;97981.28;;;5.15;100.00
40315;BME280;26021;45.640;11.302;2023-11-21T05:36:30;97981.63;;;5.20;100.00
40315;BME280;26021;45.640;11.302;2023-11-21T05:38:56;97976.34;;;5.28;100.00
40315;BME280;26021;45.640;11.302;2023-11-21T05:41:21;97974.19;;;5.23;100.00
40315;BME280;26021;45.640;11.302;2023-11-21T05:43:47;97986.59;;;5.15;100.00
40315;BME280;26021;45.640;11.302;2023-11-21T05:46:12;97987.25;;;5.08;100.00
40315;BME280;26021;45.640;11.302;2023-11-21T05:48:39;97974.50;;;5.12;100.00
40315;BME280;26021;45.640;11.302;2023-11-21T05:51:05;97977.69;;;5.24;100.00
40315;BME280;26021;45.640;11.302;2023-11-21T05:53:31;97975.53;;;5.27;100.00
40315;BME280;26021;45.640;11.302;2023-11-21T05:55:57;97972.22;;;5.25;100.00
40315;BME280;26021;45.640;11.302;2023-11-21T05:58:22;97978.97;;;5.11;100.00
40315;BME280;26021;45.640;11.302;2023-11-21T06:00:48;97981.94;;;5.08;100.00
40315;BME280;26021;45.640;11.302;2023-11-21T06:03:13;97985.97;;;5.21;100.00
40315;BME280;26021;45.640;11.302;2023-11-21T06:05:39;97982.09;;;4.99;100.00
40315;BME280;26021;45.640;11.302;2023-11-21T06:08:04;97979.25;;;4.92;100.00
40315;BME280;26021;45.640;11.302;2023-11-21T06:10:30;97983.09;;;4.98;100.00
40315;BME280;26021;45.640;11.302;2023-11-21T06:12:56;97976.31;;;5.11;100.00
40315;BME280;26021;45.640;11.302;2023-11-21T06:15:23;97973.00;;;5.09;100.00
40315;BME280;26021;45.640;11.302;2023-11-21T06:17:48;97967.84;;;5.00;100.00
40315;BME280;26021;45.640;11.302;2023-11-21T06:20:20;97973.16;;;5.08;100.00
40315;BME280;26021;45.640;11.302;2023-11-21T06:22:47;97951.78;;;4.93;100.00
40315;BME280;26021;45.640;11.302;2023-11-21T06:25:13;97983.09;;;4.98;100.00
40315;BME280;26021;45.640;11.302;2023-11-21T06:27:44;97974.16;;;5.07;100.00
40315;BME280;26021;45.640;11.302;2023-11-21T06:30:11;97981.31;;;5.23;100.00
40315;BME280;26021;45.640;11.302;2023-11-21T06:32:38;97979.78;;;5.04;100.00
40315;BME280;26021;45.640;11.302;2023-11-21T06:35:07;97974.31;;;4.97;100.00
40315;BME280;26021;45.640;11.302;2023-11-21T06:37:33;97925.09;;;4.78;100.00
40315;BME280;26021;45.640;11.302;2023-11-21T06:40:00;97974.88;;;5.25;100.00
40315;BME280;26021;45.640;11.302;2023-11-21T06:42:26;97976.47;;;5.18;100.00
40315;BME280;26021;45.640;11.302;2023-11-21T06:44:52;97975.38;;;5.37;100.00
40315;BME280;26021;45.640;11.302;2023-11-21T06:47:19;97955.66;;;5.23;100.00
40315;BME280;26021;45.640;11.302;2023-11-21T06:49:46;97974.19;;;5.31;100.00
40315;BME280;26021;45.640;11.302;2023-11-21T06:52:13;97971.38;;;5.33;100.00
40315;BME280;26021;45.640;11.302;2023-11-21T06:54:39;97975.34;;;5.21;100.00
40315;BME280;26021;45.640;11.302;2023-11-21T06:57:05;97972.56;;;5.38;100.00
40315;BME280;26021;45.640;11.302;2023-11-21T06:59:30;97971.06;;;5.44;100.00
40315;BME280;26021;45.640;11.302;2023-11-21T07:01:55;97966.91;;;5.50;100.00
40315;BME280;26021;45.640;11.302;2023-11-21T07:04:21;97970.06;;;5.37;100.00
40315;BME280;26021;45.640;11.302;2023-11-21T07:06:46;97964.75;;;5.53;100.00
40315;BME280;26021;45.640;11.302;2023-11-21T07:09:12;97957.28;;;5.57;100.00
40315;BME280;26021;45.640;11.302;2023-11-21T07:11:39;97963.91;;;5.61;100.00
40315;BME280;26021;45.640;11.302;2023-11-21T07:14:04;97955.81;;;5.54;100.00
40315;BME280;26021;45.640;11.302;2023-11-21T07:16:37;97973.38;;;5.71;100.00
40315;BME280;26021;45.640;11.302;2023-11-21T07:19:06;97973.34;;;5.80;100.00
40315;BME280;26021;45.640;11.302;2023-11-21T07:21:35;97890.19;;;5.24;100.00
40315;BME280;26021;45.640;11.302;2023-11-21T07:24:02;97949.78;;;5.85;100.00
40315;BME280;26021;45.640;11.302;2023-11-21T07:26:29;97963.25;;;5.99;100.00
40315;BME280;26021;45.640;11.302;2023-11-21T07:28:55;97963.75;;;6.03;100.00
40315;BME280;26021;45.640;11.302;2023-11-21T07:31:21;97961.38;;;6.24;100.00
40315;BME280;26021;45.640;11.302;2023-11-21T07:33:47;97950.94;;;6.15;100.00
40315;BME280;26021;45.640;11.302;2023-11-21T07:36:14;97978.44;;;6.30;100.00
40315;BME280;26021;45.640;11.302;2023-11-21T07:38:40;97912.66;;;5.77;100.00
40315;BME280;26021;45.640;11.302;2023-11-21T07:41:06;97976.97;;;6.19;100.00
40315;BME280;26021;45.640;11.302;2023-11-21T07:43:34;97971.56;;;6.44;100.00
40315;BME280;26021;45.640;11.302;2023-11-21T07:46:04;97971.38;;;6.53;100.00
40315;BME280;26021;45.640;11.302;2023-11-21T07:48:30;97969.28;;;6.41;100.00
40315;BME280;26021;45.640;11.302;2023-11-21T07:50:57;97975.03;;;6.52;100.00
40315;BME280;26021;45.640;11.302;2023-11-21T07:53:24;97963.91;;;6.49;100.00
40315;BME280;26021;45.640;11.302;2023-11-21T07:55:51;97970.25;;;6.48;100.00
40315;BME280;26021;45.640;11.302;2023-11-21T07:58:16;97966.72;;;6.55;100.00
40315;BME280;26021;45.640;11.302;2023-11-21T08:00:41;97957.69;;;6.73;100.00
40315;BME280;26021;45.640;11.302;2023-11-21T08:03:07;97962.38;;;6.62;100.00
40315;BME280;26021;45.640;11.302;2023-11-21T08:05:33;97975.81;;;6.61;100.00
40315;BME280;26021;45.640;11.302;2023-11-21T08:07:58;97972.03;;;6.55;100.00
40315;BME280;26021;45.640;11.302;2023-11-21T08:10:23;97963.06;;;6.56;100.00
40315;BME280;26021;45.640;11.302;2023-11-21T08:12:49;97968.72;;;6.53;100.00
40315;BME280;26021;45.640;11.302;2023-11-21T08:15:16;97953.69;;;6.77;100.00
40315;BME280;26021;45.640;11.302;2023-11-21T08:17:42;97957.56;;;6.97;100.00
40315;BME280;26021;45.640;11.302;2023-11-21T08:20:07;97954.13;;;7.11;100.00
40315;BME280;26021;45.640;11.302;2023-11-21T08:22:35;97906.41;;;6.95;100.00
40315;BME280;26021;45.640;11.302;2023-11-21T08:25:01;97944.84;;;7.30;100.00
40315;BME280;26021;45.640;11.302;2023-11-21T08:27:29;97958.91;;;7.61;100.00
40315;BME280;26021;45.640;11.302;2023-11-21T08:29:54;97949.31;;;7.75;100.00
40315;BME280;26021;45.640;11.302;2023-11-21T08:32:21;97946.69;;;7.52;100.00
40315;BME280;26021;45.640;11.302;2023-11-21T08:34:47;97953.84;;;7.52;100.00
40315;BME280;26021;45.640;11.302;2023-11-21T08:37:16;97958.56;;;7.64;100.00
40315;BME280;26021;45.640;11.302;2023-11-21T08:39:42;97954.53;;;7.69;100.00
40315;BME280;26021;45.640;11.302;2023-11-21T08:42:08;97955.94;;;7.79;100.00
40315;BME280;26021;45.640;11.302;2023-11-21T08:44:34;97957.25;;;7.98;100.00
40315;BME280;26021;45.640;11.302;2023-11-21T08:46:59;97951.03;;;8.20;100.00
40315;BME280;26021;45.640;11.302;2023-11-21T08:49:24;97954.25;;;8.31;100.00
40315;BME280;26021;45.640;11.302;2023-11-21T08:51:53;97955.72;;;8.63;100.00
40315;BME280;26021;45.640;11.302;2023-11-21T08:54:20;97960.50;;;8.67;100.00
40315;BME280;26021;45.640;11.302;2023-11-21T08:56:46;97936.88;;;8.64;100.00
40315;BME280;26021;45.640;11.302;2023-11-21T08:59:12;97938.94;;;8.83;100.00
40315;BME280;26021;45.640;11.302;2023-11-21T09:01:40;97967.13;;;9.07;100.00
40315;BME280;26021;45.640;11.302;2023-11-21T09:04:06;97956.72;;;9.12;100.00
40315;BME280;26021;45.640;11.302;2023-11-21T09:06:31;97972.88;;;9.26;100.00
40315;BME280;26021;45.640;11.302;2023-11-21T09:08:57;97983.22;;;9.35;100.00
40315;BME280;26021;45.640;11.302;2023-11-21T09:11:23;97976.13;;;9.42;100.00
40315;BME280;26021;45.640;11.302;2023-11-21T09:13:50;97979.66;;;9.28;100.00
40315;BME280;26021;45.640;11.302;2023-11-21T09:16:16;97986.47;;;9.31;100.00
40315;BME280;26021;45.640;11.302;2023-11-21T09:18:42;97948.16;;;9.17;100.00
40315;BME280;26021;45.640;11.302;2023-11-21T09:21:07;97992.13;;;9.42;100.00
40315;BME280;26021;45.640;11.302;2023-11-21T09:23:34;97972.47;;;9.07;100.00
40315;BME280;26021;45.640;11.302;2023-11-21T09:25:59;97964.47;;;9.07;100.00
40315;BME280;26021;45.640;11.302;2023-11-21T09:28:26;97997.47;;;9.42;100.00
40315;BME280;26021;45.640;11.302;2023-11-21T09:30:53;97999.31;;;9.42;100.00
40315;BME280;26021;45.640;11.302;2023-11-21T09:33:18;97998.34;;;9.49;100.00
40315;BME280;26021;45.640;11.302;2023-11-21T09:35:44;97992.50;;;9.61;100.00
40315;BME280;26021;45.640;11.302;2023-11-21T09:38:10;98000.13;;;9.85;100.00
40315;BME280;26021;45.640;11.302;2023-11-21T09:40:36;98001.78;;;9.86;100.00
40315;BME280;26021;45.640;11.302;2023-11-21T09:43:16;97993.03;;;9.71;100.00
40315;BME280;26021;45.640;11.302;2023-11-21T09:45:46;97822.06;;;8.66;100.00
40315;BME280;26021;45.640;11.302;2023-11-21T09:48:13;97992.75;;;9.66;100.00
40315;BME280;26021;45.640;11.302;2023-11-21T09:50:41;97985.00;;;9.49;100.00
40315;BME280;26021;45.640;11.302;2023-11-21T09:53:18;97987.50;;;9.51;100.00
40315;BME280;26021;45.640;11.302;2023-11-21T09:55:51;97941.16;;;9.16;100.00
40315;BME280;26021;45.640;11.302;2023-11-21T09:58:18;97979.28;;;9.52;100.00
40315;BME280;26021;45.640;11.302;2023-11-21T10:00:46;97988.63;;;9.84;100.00
40315;BME280;26021;45.640;11.302;2023-11-21T10:03:12;97978.19;;;9.90;100.00
40315;BME280;26021;45.640;11.302;2023-11-21T10:05:39;97965.31;;;10.00;100.00
40315;BME280;26021;45.640;11.302;2023-11-21T10:08:08;97995.31;;;10.23;100.00
40315;BME280;26021;45.640;11.302;2023-11-21T10:10:36;97999.69;;;10.31;100.00
40315;BME280;26021;45.640;11.302;2023-11-21T10:13:04;98001.19;;;10.40;100.00
40315;BME280;26021;45.640;11.302;2023-11-21T10:15:34;97937.38;;;10.30;100.00
40315;BME280;26021;45.640;11.302;2023-11-21T10:18:04;97994.69;;;10.90;100.00
40315;BME280;26021;45.640;11.302;2023-11-21T10:20:31;97990.41;;;11.02;100.00
40315;BME280;26021;45.640;11.302;2023-11-21T10:22:59;97991.66;;;11.06;100.00
40315;BME280;26021;45.640;11.302;2023-11-21T10:25:24;97982.25;;;11.17;100.00
40315;BME280;26021;45.640;11.302;2023-11-21T10:27:57;97982.44;;;11.16;100.00
40315;BME280;26021;45.640;11.302;2023-11-21T10:30:30;97929.81;;;10.75;100.00
40315;BME280;26021;45.640;11.302;2023-11-21T10:33:01;97971.69;;;11.09;100.00
40315;BME280;26021;45.640;11.302;2023-11-21T10:35:41;97968.97;;;10.96;100.00
40315;BME280;26021;45.640;11.302;2023-11-21T10:38:08;97971.88;;;11.01;100.00
40315;BME280;26021;45.640;11.302;2023-11-21T10:40:38;97977.94;;;11.23;100.00
40315;BME280;26021;45.640;11.302;2023-11-21T10:43:08;97976.69;;;11.19;100.00
40315;BME280;26021;45.640;11.302;2023-11-21T10:45:38;97981.38;;;11.10;100.00
40315;BME280;26021;45.640;11.302;2023-11-21T10:48:09;97970.91;;;11.15;100.00
40315;BME280;26021;45.640;11.302;2023-11-21T10:50:36;97939.28;;;10.77;100.00
40315;BME280;26021;45.640;11.302;2023-11-21T10:53:05;97977.19;;;10.94;100.00
40315;BME280;26021;45.640;11.302;2023-11-21T10:55:32;97979.00;;;10.80;100.00
40315;BME280;26021;45.640;11.302;2023-11-21T10:58:02;97980.00;;;10.73;100.00
40315;BME280;26021;45.640;11.302;2023-11-21T11:00:30;97981.50;;;10.89;100.00
40315;BME280;26021;45.640;11.302;2023-11-21T11:02:56;97953.19;;;10.60;100.00
40315;BME280;26021;45.640;11.302;2023-11-21T11:05:25;97971.66;;;11.02;100.00
40315;BME280;26021;45.640;11.302;2023-11-21T11:07:54;97969.56;;;10.91;100.00
40315;BME280;26021;45.640;11.302;2023-11-21T11:10:25;97968.16;;;10.95;100.00
40315;BME280;26021;45.640;11.302;2023-11-21T11:12:53;97947.94;;;10.86;100.00
40315;BME280;26021;45.640;11.302;2023-11-21T11:15:19;97982.66;;;10.73;100.00
40315;BME280;26021;45.640;11.302;2023-11-21T11:17:46;97974.31;;;10.89;100.00
40315;BME280;26021;45.640;11.302;2023-11-21T11:20:13;97984.56;;;10.79;100.00
40315;BME280;26021;45.640;11.302;2023-11-21T11:28:00;97953.59;;;10.22;100.00
40315;BME280;26021;45.640;11.302;2023-11-21T11:33:53;97974.25;;;10.13;100.00
40315;BME280;26021;45.640;11.302;2023-11-21T11:36:36;97976.00;;;10.00;100.00
40315;BME280;26021;45.640;11.302;2023-11-21T11:39:29;97981.06;;;10.16;100.00
40315;BME280;26021;45.640;11.302;2023-11-21T11:41:58;97982.66;;;10.10;100.00
40315;BME280;26021;45.640;11.302;2023-11-21T11:47:20;97992.19;;;9.92;100.00
40315;BME280;26021;45.640;11.302;2023-11-21T11:55:11;97981.16;;;10.01;100.00
40315;BME280;26021;45.640;11.302;2023-11-21T11:57:38;97993.84;;;9.93;100.00
40315;BME280;26021;45.640;11.302;2023-11-21T12:00:14;97995.63;;;9.85;100.00
40315;BME280;26021;45.640;11.302;2023-11-21T12:02:47;97984.50;;;9.82;100.00
40315;BME280;26021;45.640;11.302;2023-11-21T12:05:15;97988.19;;;9.81;100.00
40315;BME280;26021;45.640;11.302;2023-11-21T12:07:44;97984.63;;;9.74;100.00
40315;BME280;26021;45.640;11.302;2023-11-21T12:10:13;97983.28;;;9.84;100.00
40315;BME280;26021;45.640;11.302;2023-11-21T12:12:43;97989.91;;;9.88;100.00
40315;BME280;26021;45.640;11.302;2023-11-21T12:15:10;97964.59;;;9.63;100.00
40315;BME280;26021;45.640;11.302;2023-11-21T12:17:37;97971.69;;;9.71;100.00
40315;BME280;26021;45.640;11.302;2023-11-21T12:20:04;97949.34;;;9.57;100.00
40315;BME280;26021;45.640;11.302;2023-11-21T12:22:32;97983.09;;;9.86;100.00
40315;BME280;26021;45.640;11.302;2023-11-21T12:24:58;97978.97;;;9.62;100.00
40315;BME280;26021;45.640;11.302;2023-11-21T12:27:23;97977.97;;;9.42;100.00
40315;BME280;26021;45.640;11.302;2023-11-21T12:29:49;97988.56;;;9.56;100.00
40315;BME280;26021;45.640;11.302;2023-11-21T12:32:14;97989.44;;;9.64;100.00
40315;BME280;26021;45.640;11.302;2023-11-21T12:34:41;97991.16;;;9.50;100.00
40315;BME280;26021;45.640;11.302;2023-11-21T12:37:07;97948.97;;;9.39;100.00
40315;BME280;26021;45.640;11.302;2023-11-21T12:39:32;97991.09;;;9.65;100.00
40315;BME280;26021;45.640;11.302;2023-11-21T12:41:58;97987.25;;;9.67;100.00
40315;BME280;26021;45.640;11.302;2023-11-21T12:44:23;97995.75;;;9.77;100.00
40315;BME280;26021;45.640;11.302;2023-11-21T12:46:49;97984.63;;;9.74;100.00
40315;BME280;26021;45.640;11.302;2023-11-21T12:49:15;97954.81;;;9.49;100.00
40315;BME280;26021;45.640;11.302;2023-11-21T12:51:45;97993.91;;;9.78;100.00
40315;BME280;26021;45.640;11.302;2023-11-21T12:54:12;97995.69;;;9.92;100.00
40315;BME280;26021;45.640;11.302;2023-11-21T12:56:39;97964.22;;;9.87;100.00
40315;BME280;26021;45.640;11.302;2023-11-21T12:59:04;97983.72;;;9.88;100.00
40315;BME280;26021;45.640;11.302;2023-11-21T13:01:30;98001.34;;;9.82;100.00
40315;BME280;26021;45.640;11.302;2023-11-21T13:03:57;97994.56;;;9.80;100.00